Terminal Aerodrome Forecast
Issued by NWS Upton, NY

Current Version | Previous Version | Text Only | Print | Product List | Glossary On
Versions: 1 2 3 4 5 6 7 8 9 10 11 12 13 14 15 16 17 18 19 20 21 22 23 24 25 26 27
000
FTUS41 KOKX 261100
TAFBDR
TAF
KBDR 261134Z 2612/2712 23005KT P6SM SCT040 BKN100
     FM261400 21008KT P6SM SCT040 BKN100
     FM261600 20012KT P6SM SCT040 BKN100
     FM270100 21008KT P6SM BKN040 BKN100
     FM270600 20006KT 6SM BR BKN040 BKN100 PROB30 2708/2712 4SM SHRA
      BR=

USA.gov is the U.S. government's official web portal to all federal, state and local government web resources and services.